createdAt,value
2023-01-27T00:01:52.999Z,99831.66
2023-01-27T00:04:36.096Z,99834.44
2023-01-27T00:07:11.451Z,99841.56
2023-01-27T00:09:47.209Z,99827.47
2023-01-27T00:12:49.517Z,99822.59
2023-01-27T00:15:27.491Z,99812.41
2023-01-27T00:18:02.981Z,99814.63
2023-01-27T00:20:54.200Z,99817.28
2023-01-27T00:23:49.168Z,99812.09
2023-01-27T00:26:23.602Z,99810.44
2023-01-27T00:29:06.845Z,99807.59
2023-01-27T00:32:01.473Z,99800.22
2023-01-27T00:34:41.287Z,99809.84
2023-01-27T00:37:21.742Z,99804.56
2023-01-27T00:39:51.659Z,99806.84
2023-01-27T00:42:34.145Z,99806.31
2023-01-27T00:45:25.039Z,99809.09
2023-01-27T00:47:55.247Z,99808.41
2023-01-27T00:50:48.957Z,99806.75
2023-01-27T00:53:41.656Z,99807.06
2023-01-27T00:56:22.791Z,99803.69
2023-01-27T00:58:58.926Z,99808.72
2023-01-27T01:01:41.799Z,99797.13
2023-01-27T01:04:21.328Z,99801.88
2023-01-27T01:06:56.438Z,99801.56
2023-01-27T01:09:34.313Z,99799.78
2023-01-27T01:12:09.689Z,99804.41
2023-01-27T01:14:39.623Z,99799.09
2023-01-27T01:17:20.589Z,99797.25
2023-01-27T01:19:54.950Z,99794.91
2023-01-27T01:22:30.067Z,99791.06
2023-01-27T01:25:16.041Z,99799.63
2023-01-27T01:27:53.943Z,99794.75
2023-01-27T01:30:31.636Z,99797.41
2023-01-27T01:33:06.665Z,99792.38
2023-01-27T01:35:50.502Z,99799.22
2023-01-27T01:38:25.599Z,99794.75
2023-01-27T01:41:08.408Z,99798.78
2023-01-27T01:43:51.420Z,99790.13
2023-01-27T01:46:32.055Z,99799.78
2023-01-27T01:49:06.865Z,99794.91
2023-01-27T01:51:52.513Z,99783.06
2023-01-27T01:54:30.723Z,99785.25
2023-01-27T01:57:16.195Z,99786.84
2023-01-27T02:00:00.138Z,99784.00
2023-01-27T02:02:42.082Z,99785.13
2023-01-27T02:05:30.611Z,99784.88
2023-01-27T02:08:39.366Z,99784.03
2023-01-27T02:11:25.451Z,99769.53
2023-01-27T02:14:08.514Z,99765.09
2023-01-27T02:16:46.818Z,99765.16
2023-01-27T02:19:37.028Z,99764.59
2023-01-27T02:22:09.902Z,99752.84
2023-01-27T02:24:48.098Z,99762.25
2023-01-27T02:27:21.031Z,99760.72
2023-01-27T02:29:59.398Z,99759.06
2023-01-27T02:32:45.649Z,99757.00
2023-01-27T02:35:28.986Z,99754.78
2023-01-27T02:38:04.677Z,99752.81
2023-01-27T02:40:46.081Z,99750.06
2023-01-27T02:43:24.657Z,99745.16
2023-01-27T02:46:03.502Z,99734.00
2023-01-27T02:48:39.541Z,99739.59
2023-01-27T02:51:14.678Z,99730.78
2023-01-27T02:53:52.039Z,99722.75
2023-01-27T02:56:28.021Z,99720.09
2023-01-27T02:59:02.998Z,99728.63
2023-01-27T03:01:47.168Z,99723.31
2023-01-27T03:04:23.543Z,99726.41
2023-01-27T03:07:04.653Z,99721.09
2023-01-27T03:09:39.476Z,99721.22
2023-01-27T03:12:21.156Z,99714.16
2023-01-27T03:15:21.143Z,99713.16
2023-01-27T03:18:12.333Z,99713.34
2023-01-27T03:20:49.625Z,99705.38
2023-01-27T03:23:27.965Z,99703.56
2023-01-27T03:26:09.502Z,99707.75
2023-01-27T03:29:07.726Z,99698.84
2023-01-27T03:31:55.231Z,99701.63
2023-01-27T03:34:26.319Z,99700.09
2023-01-27T03:37:28.173Z,99692.84
2023-01-27T03:40:27.335Z,99704.56
2023-01-27T03:43:23.847Z,99701.34
2023-01-27T03:46:15.172Z,99704.03
2023-01-27T03:49:01.190Z,99693.84
2023-01-27T03:51:35.776Z,99686.44
2023-01-27T03:54:17.103Z,99687.72
2023-01-27T03:56:52.198Z,99687.00
2023-01-27T03:59:36.236Z,99688.56
2023-01-27T04:02:27.597Z,99686.72
2023-01-27T04:05:18.311Z,99681.03
2023-01-27T04:07:56.152Z,99685.91
2023-01-27T04:10:59.633Z,99682.13
2023-01-27T04:13:37.693Z,99675.19
2023-01-27T04:16:18.280Z,99672.66
2023-01-27T04:18:55.777Z,99680.59
2023-01-27T04:21:31.231Z,99676.00
2023-01-27T04:24:17.439Z,99675.72
2023-01-27T04:26:55.729Z,99671.13
2023-01-27T04:29:29.742Z,99668.63
2023-01-27T04:32:10.766Z,99669.72
2023-01-27T04:34:57.365Z,99667.50
2023-01-27T04:37:38.280Z,99674.63
2023-01-27T04:40:16.464Z,99664.19
2023-01-27T04:42:52.972Z,99674.06
2023-01-27T04:45:26.741Z,99672.53
2023-01-27T04:48:07.700Z,99678.38
2023-01-27T04:50:46.636Z,99677.00
2023-01-27T04:53:24.566Z,99676.72
2023-01-27T04:56:08.903Z,99681.59
2023-01-27T04:58:41.724Z,99685.34
2023-01-27T05:01:16.530Z,99686.03
2023-01-27T05:03:57.221Z,99684.91
2023-01-27T05:06:33.587Z,99684.78
2023-01-27T05:09:12.115Z,99691.47
2023-01-27T05:11:50.161Z,99692.31
2023-01-27T05:14:24.091Z,99683.53
2023-01-27T05:16:57.785Z,99681.03
2023-01-27T05:19:38.573Z,99673.91
2023-01-27T05:22:16.952Z,99671.78
2023-01-27T05:24:49.399Z,99680.00
2023-01-27T05:27:32.683Z,99672.78
2023-01-27T05:30:07.864Z,99678.78
2023-01-27T05:32:42.390Z,99674.72
2023-01-27T05:35:24.350Z,99689.88
2023-01-27T05:38:04.799Z,99678.63
2023-01-27T05:40:39.757Z,99676.66
2023-01-27T05:43:12.331Z,99681.00
2023-01-27T05:45:44.697Z,99680.16
2023-01-27T05:48:24.888Z,99687.25
2023-01-27T05:51:02.153Z,99679.06
2023-01-27T05:53:38.651Z,99672.47
2023-01-27T05:56:19.626Z,99678.44
2023-01-27T05:58:55.863Z,99679.47
2023-01-27T06:01:41.634Z,99675.00
2023-01-27T06:04:19.915Z,99673.06
2023-01-27T06:06:58.016Z,99679.31
2023-01-27T06:09:40.314Z,99674.44
2023-01-27T06:12:18.061Z,99689.19
2023-01-27T06:14:55.555Z,99682.38
2023-01-27T06:17:32.058Z,99682.66
2023-01-27T06:20:16.252Z,99688.66
2023-01-27T06:22:59.143Z,99685.31
2023-01-27T06:25:43.675Z,99679.31
2023-01-27T06:28:28.606Z,99680.00
2023-01-27T06:31:18.258Z,99680.88
2023-01-27T06:33:59.684Z,99688.09
2023-01-27T06:36:34.754Z,99684.22
2023-01-27T06:39:12.884Z,99694.81
2023-01-27T06:41:44.716Z,99691.06
2023-01-27T06:44:19.805Z,99690.34
2023-01-27T06:47:00.307Z,99690.63
2023-01-27T06:49:40.291Z,99684.22
2023-01-27T06:52:29.636Z,99685.91
2023-01-27T06:55:05.015Z,99690.34
2023-01-27T06:57:51.979Z,99690.63
2023-01-27T07:00:42.047Z,99687.16
2023-01-27T07:03:30.644Z,99685.34
2023-01-27T07:06:14.175Z,99685.19
2023-01-27T07:08:54.836Z,99683.66
2023-01-27T07:11:33.237Z,99690.63
2023-01-27T07:14:06.171Z,99682.56
2023-01-27T07:16:41.013Z,99688.38
2023-01-27T07:19:21.633Z,99689.16
2023-01-27T07:22:01.964Z,99691.00
2023-01-27T07:24:43.044Z,99700.00
2023-01-27T07:27:26.258Z,99698.59
2023-01-27T07:30:10.103Z,99706.81
2023-01-27T07:32:51.633Z,99704.69
2023-01-27T07:35:29.602Z,99699.78
2023-01-27T07:38:07.675Z,99704.03
2023-01-27T07:40:42.795Z,99701.09
2023-01-27T07:43:22.648Z,99697.56
2023-01-27T07:46:06.017Z,99687.63
2023-01-27T07:48:46.577Z,99693.03
2023-01-27T07:51:24.635Z,99697.06
2023-01-27T07:54:03.059Z,99697.75
2023-01-27T07:56:38.205Z,99695.88
2023-01-27T07:59:21.032Z,99698.09
2023-01-27T08:01:59.184Z,99709.00
2023-01-27T08:04:52.094Z,99699.38
2023-01-27T08:07:39.793Z,99695.22
2023-01-27T08:10:18.855Z,99695.53
2023-01-27T08:12:54.080Z,99699.91
2023-01-27T08:15:35.024Z,99699.25
2023-01-27T08:18:12.239Z,99703.31
2023-01-27T08:20:53.056Z,99706.16
2023-01-27T08:23:28.621Z,99705.91
2023-01-27T08:26:06.253Z,99708.25
2023-01-27T08:28:47.167Z,99704.78
2023-01-27T08:31:25.886Z,99710.25
2023-01-27T08:34:03.938Z,99715.78
2023-01-27T08:36:44.169Z,99713.88
2023-01-27T08:39:21.674Z,99716.47
2023-01-27T08:41:54.355Z,99715.94
2023-01-27T08:44:31.557Z,99713.66
2023-01-27T08:47:10.019Z,99709.78
2023-01-27T08:49:45.011Z,99713.50
2023-01-27T08:52:22.439Z,99706.91
2023-01-27T08:55:00.052Z,99707.66
2023-01-27T08:57:38.662Z,99716.06
2023-01-27T09:00:17.712Z,99714.34
2023-01-27T09:02:54.843Z,99716.41
2023-01-27T09:05:35.374Z,99717.03
2023-01-27T09:08:10.858Z,99723.69
2023-01-27T09:10:41.403Z,99719.75
2023-01-27T09:13:22.428Z,99716.00
2023-01-27T09:16:01.311Z,99726.31
2023-01-27T09:18:44.446Z,99724.97
2023-01-27T09:21:24.529Z,99727.47
2023-01-27T09:24:03.577Z,99725.84
2023-01-27T09:26:43.672Z,99723.72
2023-01-27T09:29:16.579Z,99718.75
2023-01-27T09:32:02.280Z,99729.03
2023-01-27T09:34:41.735Z,99734.81
2023-01-27T09:37:20.251Z,99735.81
2023-01-27T09:40:03.796Z,99735.13
2023-01-27T09:43:21.610Z,99732.59
2023-01-27T09:46:08.946Z,99738.53
2023-01-27T09:48:54.313Z,99736.53
2023-01-27T09:52:02.373Z,99742.91
2023-01-27T09:54:54.315Z,99741.06
2023-01-27T09:57:32.472Z,99746.03
2023-01-27T10:00:29.373Z,99736.34
2023-01-27T10:03:16.569Z,99730.56
2023-01-27T10:06:15.409Z,99733.38
2023-01-27T10:09:11.928Z,99735.94
2023-01-27T10:12:07.025Z,99729.88
2023-01-27T10:15:00.480Z,99733.41
2023-01-27T10:18:06.265Z,99732.94
2023-01-27T10:21:01.193Z,99727.63
2023-01-27T10:24:08.824Z,99734.44
2023-01-27T10:26:52.203Z,99729.91
2023-01-27T10:29:30.789Z,99734.13
2023-01-27T10:32:10.980Z,99728.91
2023-01-27T10:35:00.026Z,99739.31
2023-01-27T10:37:35.200Z,99740.75
2023-01-27T10:40:40.909Z,99735.44
2023-01-27T10:43:37.840Z,99734.06
2023-01-27T10:46:35.531Z,99730.13
2023-01-27T10:49:26.149Z,99732.41
2023-01-27T10:52:10.072Z,99724.75
2023-01-27T10:54:53.917Z,99722.22
2023-01-27T10:57:47.915Z,99720.88
2023-01-27T11:03:40.038Z,99719.38
2023-01-27T11:06:33.614Z,99721.16
2023-01-27T11:09:43.849Z,99719.97
2023-01-27T11:12:19.780Z,99719.44
2023-01-27T11:14:59.567Z,99713.88
2023-01-27T11:17:48.083Z,99707.50
2023-01-27T11:20:35.308Z,99702.19
2023-01-27T11:23:54.476Z,99696.03
2023-01-27T11:26:59.069Z,99698.19
2023-01-27T11:29:48.863Z,99701.94
2023-01-27T11:32:48.567Z,99710.72
2023-01-27T11:35:28.421Z,99712.75
2023-01-27T11:38:15.315Z,99699.31
2023-01-27T11:40:54.790Z,99692.50
2023-01-27T11:43:36.988Z,99687.59
2023-01-27T11:46:10.213Z,99681.19
2023-01-27T11:48:49.946Z,99688.53
2023-01-27T11:51:26.871Z,99684.47
2023-01-27T11:54:16.001Z,99672.00
2023-01-27T11:56:56.968Z,99673.28
2023-01-27T11:59:44.847Z,99676.88
2023-01-27T12:02:25.203Z,99666.63
2023-01-27T12:05:14.810Z,99675.41
2023-01-27T12:07:57.188Z,99662.59
2023-01-27T12:10:38.016Z,99659.56
2023-01-27T12:13:24.952Z,99660.69
2023-01-27T12:15:59.037Z,99654.28
2023-01-27T12:18:41.058Z,99652.78
2023-01-27T12:21:24.423Z,99647.03
2023-01-27T12:24:06.196Z,99637.47
2023-01-27T12:26:50.012Z,99637.69
2023-01-27T12:29:45.855Z,99635.75
2023-01-27T12:32:34.118Z,99630.28
2023-01-27T12:35:23.251Z,99635.78
2023-01-27T12:38:16.949Z,99623.06
2023-01-27T12:40:55.695Z,99628.72
2023-01-27T12:43:33.063Z,99631.13
2023-01-27T12:46:20.096Z,99633.97
2023-01-27T12:49:06.958Z,99634.97
2023-01-27T12:51:51.587Z,99637.75
2023-01-27T12:54:37.328Z,99619.22
2023-01-27T12:57:19.054Z,99624.13
2023-01-27T12:59:52.921Z,99619.78
2023-01-27T13:02:30.482Z,99625.41
2023-01-27T13:05:20.030Z,99614.56
2023-01-27T13:07:59.080Z,99630.00
2023-01-27T13:10:36.378Z,99643.63
2023-01-27T13:13:26.342Z,99640.63
2023-01-27T13:16:05.933Z,99640.09
2023-01-27T13:18:39.662Z,99650.00
2023-01-27T13:21:23.805Z,99653.78
2023-01-27T13:24:03.444Z,99652.78
2023-01-27T13:26:41.323Z,99649.69
2023-01-27T13:29:35.366Z,99647.28
2023-01-27T13:32:25.085Z,99651.91
2023-01-27T13:35:08.853Z,99646.78
2023-01-27T13:37:43.622Z,99650.00
2023-01-27T13:40:25.949Z,99643.91
2023-01-27T13:43:24.263Z,99656.66
2023-01-27T13:46:03.281Z,99652.47
2023-01-27T13:48:46.212Z,99650.72
2023-01-27T13:51:20.490Z,99655.44
2023-01-27T13:54:15.661Z,99651.56
2023-01-27T13:57:13.133Z,99646.97
2023-01-27T14:00:15.442Z,99652.19
2023-01-27T14:03:15.096Z,99657.03
2023-01-27T14:06:13.805Z,99655.03
2023-01-27T14:09:01.533Z,99651.91
2023-01-27T14:11:49.906Z,99659.81
2023-01-27T14:14:57.474Z,99654.34
2023-01-27T14:18:06.486Z,99653.56
2023-01-27T14:21:02.703Z,99651.81
2023-01-27T14:24:20.561Z,99657.69
2023-01-27T14:27:17.007Z,99651.72
2023-01-27T14:30:14.448Z,99646.03
2023-01-27T14:33:05.071Z,99646.97
2023-01-27T14:35:59.387Z,99637.47
2023-01-27T14:38:51.430Z,99645.13
2023-01-27T14:41:42.098Z,99648.69
2023-01-27T14:44:38.394Z,99648.13
2023-01-27T14:47:27.915Z,99649.81
2023-01-27T14:50:09.880Z,99644.13
2023-01-27T14:53:07.310Z,99639.97
2023-01-27T14:56:02.251Z,99636.88
2023-01-27T14:58:47.573Z,99639.91
2023-01-27T15:02:11.796Z,99646.00
2023-01-27T15:05:14.087Z,99640.69
2023-01-27T15:08:02.236Z,99645.22
2023-01-27T15:10:42.570Z,99651.25
2023-01-27T15:13:26.547Z,99652.09
2023-01-27T15:16:04.881Z,99642.81
2023-01-27T15:18:51.037Z,99654.91
2023-01-27T15:21:34.982Z,99646.69
2023-01-27T15:24:25.800Z,99657.28
2023-01-27T15:27:06.177Z,99646.28
2023-01-27T15:29:44.426Z,99652.28
2023-01-27T15:32:34.192Z,99653.75
2023-01-27T15:35:36.661Z,99657.69
2023-01-27T15:38:21.261Z,99658.44
2023-01-27T15:41:07.241Z,99661.94
2023-01-27T15:43:44.277Z,99659.25
2023-01-27T15:46:55.881Z,99662.41
2023-01-27T15:49:33.903Z,99661.28
2023-01-27T15:52:56.069Z,99669.06
2023-01-27T15:55:33.708Z,99674.09
2023-01-27T15:58:23.329Z,99678.03
2023-01-27T16:01:01.719Z,99670.06
2023-01-27T16:03:37.990Z,99665.28
2023-01-27T16:06:16.847Z,99666.97
2023-01-27T16:08:48.834Z,99672.41
2023-01-27T16:11:57.300Z,99668.69
2023-01-27T16:14:41.455Z,99668.69
2023-01-27T16:17:28.915Z,99681.59
2023-01-27T16:20:13.554Z,99676.09
2023-01-27T16:22:57.171Z,99680.72
2023-01-27T16:25:49.298Z,99685.81
2023-01-27T16:28:34.870Z,99685.13
2023-01-27T16:31:28.427Z,99691.28
2023-01-27T16:34:12.774Z,99686.25
2023-01-27T16:36:50.755Z,99685.72
2023-01-27T16:39:32.623Z,99691.97
2023-01-27T16:42:12.112Z,99707.50
2023-01-27T16:44:55.069Z,99700.84
2023-01-27T16:47:41.379Z,99704.63
2023-01-27T16:50:48.356Z,99711.16
2023-01-27T16:53:33.859Z,99713.34
2023-01-27T16:56:21.696Z,99701.91
2023-01-27T16:59:04.614Z,99705.25
2023-01-27T17:01:48.455Z,99714.81
2023-01-27T17:04:32.086Z,99715.47
2023-01-27T17:07:13.586Z,99710.56
2023-01-27T17:10:05.944Z,99719.13
2023-01-27T17:12:53.335Z,99707.91
2023-01-27T17:15:27.290Z,99724.09
2023-01-27T17:17:57.046Z,99721.75
2023-01-27T17:20:40.793Z,99730.03
2023-01-27T17:23:34.241Z,99730.66
2023-01-27T17:26:37.133Z,99733.53
2023-01-27T17:29:18.428Z,99733.84
2023-01-27T17:31:57.046Z,99724.28
2023-01-27T17:34:33.031Z,99729.81
2023-01-27T17:37:24.878Z,99735.31
2023-01-27T17:40:15.395Z,99732.19
2023-01-27T17:42:51.462Z,99734.47
2023-01-27T17:45:37.999Z,99727.53
2023-01-27T17:48:15.908Z,99726.69
2023-01-27T17:51:00.884Z,99717.44
2023-01-27T17:53:39.738Z,99722.84
2023-01-27T17:56:39.582Z,99728.09
2023-01-27T17:59:26.835Z,99727.31
2023-01-27T18:02:03.527Z,99731.25
2023-01-27T18:04:42.666Z,99734.06
2023-01-27T18:07:28.465Z,99727.31
2023-01-27T18:09:58.563Z,99741.41
2023-01-27T18:12:53.353Z,99738.53
2023-01-27T18:16:14.237Z,99743.34
2023-01-27T18:18:49.691Z,99742.19
2023-01-27T18:21:35.615Z,99743.19
2023-01-27T18:24:20.243Z,99748.28
2023-01-27T18:26:55.801Z,99743.19
2023-01-27T18:29:36.473Z,99742.13
2023-01-27T18:32:24.619Z,99741.00
2023-01-27T18:35:01.255Z,99738.47
2023-01-27T18:37:55.377Z,99732.69
2023-01-27T18:40:39.148Z,99732.00
2023-01-27T18:43:18.537Z,99733.31
2023-01-27T18:45:53.406Z,99736.84
2023-01-27T18:48:39.880Z,99735.50
2023-01-27T18:51:18.726Z,99734.97
2023-01-27T18:53:53.869Z,99733.44
2023-01-27T18:56:31.831Z,99746.06
2023-01-27T18:59:09.162Z,99740.91
2023-01-27T19:01:49.540Z,99738.31
2023-01-27T19:04:29.816Z,99745.22
2023-01-27T19:07:11.415Z,99750.28
2023-01-27T19:09:53.252Z,99743.94
2023-01-27T19:12:29.435Z,99740.59
2023-01-27T19:15:07.675Z,99741.94
2023-01-27T19:17:53.261Z,99750.97
2023-01-27T19:20:33.107Z,99751.91
2023-01-27T19:23:15.058Z,99750.28
2023-01-27T19:25:54.056Z,99746.66
2023-01-27T19:28:38.453Z,99753.25
2023-01-27T19:31:22.024Z,99757.59
2023-01-27T19:34:11.895Z,99751.66
2023-01-27T19:36:50.432Z,99751.75
2023-01-27T19:39:27.775Z,99748.47
2023-01-27T19:42:10.761Z,99750.50
2023-01-27T19:44:54.733Z,99757.47
2023-01-27T19:47:29.583Z,99761.38
2023-01-27T19:50:15.325Z,99762.19
2023-01-27T19:52:51.213Z,99759.00
2023-01-27T19:55:32.849Z,99769.75
2023-01-27T19:58:07.756Z,99771.41
2023-01-27T20:00:47.530Z,99769.56
2023-01-27T20:03:25.920Z,99771.16
2023-01-27T20:06:30.304Z,99771.09
2023-01-27T20:09:08.189Z,99782.09
2023-01-27T20:11:46.137Z,99778.00
2023-01-27T20:14:26.123Z,99790.16
2023-01-27T20:17:12.456Z,99786.06
2023-01-27T20:19:49.807Z,99785.97
2023-01-27T20:22:32.140Z,99789.09
2023-01-27T20:25:13.526Z,99784.69
2023-01-27T20:28:08.784Z,99788.13
2023-01-27T20:30:50.579Z,99789.56
2023-01-27T20:33:28.792Z,99799.75
2023-01-27T20:36:04.510Z,99791.28
2023-01-27T20:38:43.935Z,99792.28
2023-01-27T20:41:21.917Z,99786.03
2023-01-27T20:44:11.117Z,99791.84
2023-01-27T20:46:46.027Z,99797.00
2023-01-27T20:49:21.578Z,99791.91
2023-01-27T20:51:56.926Z,99788.72
2023-01-27T20:54:34.369Z,99784.72
2023-01-27T20:57:19.946Z,99790.00
2023-01-27T20:59:58.686Z,99791.97
2023-01-27T21:02:37.339Z,99787.34
2023-01-27T21:05:11.539Z,99789.00
2023-01-27T21:07:48.954Z,99781.09
2023-01-27T21:10:29.230Z,99787.06
2023-01-27T21:13:04.175Z,99782.44
2023-01-27T21:15:42.105Z,99785.88
2023-01-27T21:18:22.915Z,99784.72
2023-01-27T21:21:01.809Z,99787.75
2023-01-27T21:23:33.367Z,99780.09
2023-01-27T21:26:15.322Z,99784.34
2023-01-27T21:28:55.759Z,99790.69
2023-01-27T21:31:31.419Z,99796.97
2023-01-27T21:34:10.548Z,99794.31
2023-01-27T21:36:48.572Z,99798.19
2023-01-27T21:39:23.934Z,99795.38
2023-01-27T21:42:16.315Z,99790.03
2023-01-27T21:45:09.988Z,99800.88
2023-01-27T21:47:41.893Z,99797.69
2023-01-27T21:50:23.206Z,99791.47
2023-01-27T21:52:55.533Z,99800.50
2023-01-27T21:55:33.758Z,99799.38
2023-01-27T21:58:15.876Z,99800.94
2023-01-27T22:00:53.925Z,99807.91
2023-01-27T22:03:31.321Z,99803.53
2023-01-27T22:06:15.802Z,99798.88
2023-01-27T22:08:57.355Z,99803.38
2023-01-27T22:11:35.163Z,99800.56
2023-01-27T22:14:15.574Z,99801.47
2023-01-27T22:17:04.032Z,99805.34
2023-01-27T22:19:51.293Z,99805.25
2023-01-27T22:22:37.647Z,99811.78
2023-01-27T22:25:18.669Z,99807.53
2023-01-27T22:27:48.764Z,99798.44
2023-01-27T22:30:18.401Z,99805.66
2023-01-27T22:32:58.854Z,99798.44
2023-01-27T22:35:36.679Z,99802.78
2023-01-27T22:38:18.953Z,99796.72
2023-01-27T22:41:06.362Z,99803.31
2023-01-27T22:43:47.944Z,99796.41
2023-01-27T22:46:26.646Z,99795.03
2023-01-27T22:49:05.366Z,99798.81
2023-01-27T22:51:47.741Z,99788.88
2023-01-27T22:54:26.743Z,99792.53
2023-01-27T22:57:10.050Z,99791.66
2023-01-27T22:59:44.856Z,99791.91
2023-01-27T23:02:22.270Z,99786.91
2023-01-27T23:04:57.314Z,99787.97
2023-01-27T23:07:30.661Z,99793.44
2023-01-27T23:10:14.043Z,99785.81
2023-01-27T23:12:49.992Z,99791.91
2023-01-27T23:15:27.877Z,99789.88
2023-01-27T23:18:02.496Z,99791.47
2023-01-27T23:20:40.103Z,99797.53
2023-01-27T23:23:14.804Z,99791.84
2023-01-27T23:26:10.423Z,99797.25
2023-01-27T23:28:50.673Z,99800.13
2023-01-27T23:31:30.123Z,99786.66
2023-01-27T23:34:11.835Z,99782.28
2023-01-27T23:36:49.431Z,99797.53
2023-01-27T23:39:27.541Z,99788.88
2023-01-27T23:42:12.439Z,99787.88
2023-01-27T23:45:00.859Z,99790.72
2023-01-27T23:47:40.867Z,99788.78
2023-01-27T23:50:18.183Z,99785.97
2023-01-27T23:52:55.689Z,99795.19
2023-01-27T23:55:45.686Z,99787.88
2023-01-27T23:58:17.487Z,99795.75
